sensor_id;sensor_type;location;lat;lon;timestamp;P1;durP1;ratioP1;P2;durP2;ratioP2
9186;SDS011;7273;48.902;9.410;2022-08-11T00:00:31;193.82;;;75.50;;
9186;SDS011;7273;48.902;9.410;2022-08-11T00:03:02;50.65;;;18.40;;
9186;SDS011;7273;48.902;9.410;2022-08-11T00:05:31;6.90;;;3.33;;
9186;SDS011;7273;48.902;9.410;2022-08-11T00:07:58;8.45;;;3.72;;
9186;SDS011;7273;48.902;9.410;2022-08-11T00:10:26;7.55;;;3.47;;
9186;SDS011;7273;48.902;9.410;2022-08-11T00:12:54;240.00;;;90.97;;
9186;SDS011;7273;48.902;9.410;2022-08-11T00:15:21;228.10;;;87.05;;
9186;SDS011;7273;48.902;9.410;2022-08-11T00:17:48;222.23;;;84.28;;
9186;SDS011;7273;48.902;9.410;2022-08-11T00:20:20;202.68;;;78.50;;
9186;SDS011;7273;48.902;9.410;2022-08-11T00:22:47;3.97;;;2.05;;
9186;SDS011;7273;48.902;9.410;2022-08-11T00:25:18;252.95;;;91.95;;
9186;SDS011;7273;48.902;9.410;2022-08-11T00:27:46;237.95;;;88.63;;
9186;SDS011;7273;48.902;9.410;2022-08-11T00:30:12;263.58;;;93.10;;
9186;SDS011;7273;48.902;9.410;2022-08-11T00:32:41;221.65;;;79.28;;
9186;SDS011;7273;48.902;9.410;2022-08-11T00:35:11;220.35;;;81.13;;
9186;SDS011;7273;48.902;9.410;2022-08-11T00:37:42;6.00;;;3.00;;
9186;SDS011;7273;48.902;9.410;2022-08-11T00:44:05;246.98;;;89.80;;
9186;SDS011;7273;48.902;9.410;2022-08-11T00:48:49;10.80;;;4.85;;
9186;SDS011;7273;48.902;9.410;2022-08-11T00:54:21;248.85;;;89.10;;
9186;SDS011;7273;48.902;9.410;2022-08-11T01:05:33;254.68;;;91.38;;
9186;SDS011;7273;48.902;9.410;2022-08-11T01:21:22;248.98;;;88.80;;
9186;SDS011;7273;48.902;9.410;2022-08-11T01:44:19;210.45;;;77.85;;
9186;SDS011;7273;48.902;9.410;2022-08-11T02:01:45;8.25;;;3.85;;
9186;SDS011;7273;48.902;9.410;2022-08-11T02:12:56;7.75;;;3.85;;
9186;SDS011;7273;48.902;9.410;2022-08-11T02:15:34;208.43;;;75.50;;
9186;SDS011;7273;48.902;9.410;2022-08-11T02:18:09;299.60;;;99.70;;
9186;SDS011;7273;48.902;9.410;2022-08-11T02:26:24;269.67;;;93.32;;
9186;SDS011;7273;48.902;9.410;2022-08-11T02:31:51;192.75;;;79.18;;
9186;SDS011;7273;48.902;9.410;2022-08-11T02:42:25;274.90;;;94.88;;
9186;SDS011;7273;48.902;9.410;2022-08-11T02:48:01;17.45;;;9.60;;
9186;SDS011;7273;48.902;9.410;2022-08-11T02:56:05;6.45;;;3.20;;
9186;SDS011;7273;48.902;9.410;2022-08-11T02:58:53;74.97;;;28.63;;
9186;SDS011;7273;48.902;9.410;2022-08-11T03:01:54;240.75;;;80.22;;
9186;SDS011;7273;48.902;9.410;2022-08-11T03:04:27;25.80;;;17.67;;
9186;SDS011;7273;48.902;9.410;2022-08-11T03:07:04;13.00;;;8.30;;
9186;SDS011;7273;48.902;9.410;2022-08-11T03:09:41;11.27;;;5.85;;
9186;SDS011;7273;48.902;9.410;2022-08-11T03:12:18;12.65;;;7.97;;
9186;SDS011;7273;48.902;9.410;2022-08-11T03:15:11;7.57;;;4.15;;
9186;SDS011;7273;48.902;9.410;2022-08-11T03:20:35;7.10;;;3.63;;
9186;SDS011;7273;48.902;9.410;2022-08-11T03:26:21;8.57;;;4.82;;
9186;SDS011;7273;48.902;9.410;2022-08-11T03:29:14;19.80;;;10.80;;
9186;SDS011;7273;48.902;9.410;2022-08-11T03:31:44;10.70;;;6.32;;
9186;SDS011;7273;48.902;9.410;2022-08-11T03:34:20;122.57;;;51.25;;
9186;SDS011;7273;48.902;9.410;2022-08-11T03:43:10;390.48;;;116.22;;
9186;SDS011;7273;48.902;9.410;2022-08-11T03:45:55;395.33;;;116.72;;
9186;SDS011;7273;48.902;9.410;2022-08-11T03:48:39;394.73;;;117.30;;
9186;SDS011;7273;48.902;9.410;2022-08-11T03:51:17;356.27;;;109.03;;
9186;SDS011;7273;48.902;9.410;2022-08-11T03:54:06;99.40;;;53.05;;
9186;SDS011;7273;48.902;9.410;2022-08-11T04:35:31;386.27;;;115.20;;
9186;SDS011;7273;48.902;9.410;2022-08-11T04:40:54;384.45;;;114.25;;
9186;SDS011;7273;48.902;9.410;2022-08-11T04:46:47;311.88;;;99.15;;
9186;SDS011;7273;48.902;9.410;2022-08-11T04:55:44;11.38;;;6.45;;
9186;SDS011;7273;48.902;9.410;2022-08-11T04:58:58;19.05;;;12.65;;
9186;SDS011;7273;48.902;9.410;2022-08-11T05:13:04;33.40;;;22.42;;
9186;SDS011;7273;48.902;9.410;2022-08-11T05:16:10;33.92;;;22.52;;
9186;SDS011;7273;48.902;9.410;2022-08-11T05:18:56;26.50;;;17.92;;
9186;SDS011;7273;48.902;9.410;2022-08-11T05:21:41;29.52;;;20.15;;
9186;SDS011;7273;48.902;9.410;2022-08-11T05:27:25;28.17;;;19.25;;
9186;SDS011;7273;48.902;9.410;2022-08-11T05:30:28;18.50;;;13.35;;
9186;SDS011;7273;48.902;9.410;2022-08-11T05:33:24;16.67;;;10.93;;
9186;SDS011;7273;48.902;9.410;2022-08-11T05:39:02;30.63;;;20.58;;
9186;SDS011;7273;48.902;9.410;2022-08-11T05:41:55;28.67;;;19.63;;
9186;SDS011;7273;48.902;9.410;2022-08-11T05:44:43;38.42;;;26.30;;
9186;SDS011;7273;48.902;9.410;2022-08-11T05:47:28;34.05;;;24.02;;
9186;SDS011;7273;48.902;9.410;2022-08-11T05:50:14;34.63;;;23.23;;
9186;SDS011;7273;48.902;9.410;2022-08-11T05:53:01;36.63;;;26.10;;
9186;SDS011;7273;48.902;9.410;2022-08-11T05:55:46;67.32;;;40.47;;
9186;SDS011;7273;48.902;9.410;2022-08-11T05:58:34;91.10;;;49.88;;
9186;SDS011;7273;48.902;9.410;2022-08-11T06:01:02;113.93;;;57.65;;
9186;SDS011;7273;48.902;9.410;2022-08-11T06:03:29;130.95;;;62.92;;
9186;SDS011;7273;48.902;9.410;2022-08-11T06:06:19;162.25;;;70.20;;
9186;SDS011;7273;48.902;9.410;2022-08-11T06:08:45;168.43;;;72.80;;
9186;SDS011;7273;48.902;9.410;2022-08-11T06:11:12;176.65;;;75.50;;
9186;SDS011;7273;48.902;9.410;2022-08-11T06:13:43;174.45;;;75.60;;
9186;SDS011;7273;48.902;9.410;2022-08-11T06:16:10;201.32;;;81.40;;
9186;SDS011;7273;48.902;9.410;2022-08-11T06:18:39;218.52;;;85.30;;
9186;SDS011;7273;48.902;9.410;2022-08-11T06:21:10;217.25;;;85.30;;
9186;SDS011;7273;48.902;9.410;2022-08-11T06:23:36;198.43;;;83.55;;
9186;SDS011;7273;48.902;9.410;2022-08-11T06:26:06;181.90;;;79.65;;
9186;SDS011;7273;48.902;9.410;2022-08-11T06:28:34;168.13;;;73.07;;
9186;SDS011;7273;48.902;9.410;2022-08-11T06:31:10;161.57;;;73.50;;
9186;SDS011;7273;48.902;9.410;2022-08-11T06:33:38;159.25;;;72.75;;
9186;SDS011;7273;48.902;9.410;2022-08-11T06:36:38;172.85;;;78.05;;
9186;SDS011;7273;48.902;9.410;2022-08-11T06:44:40;169.77;;;77.43;;
9186;SDS011;7273;48.902;9.410;2022-08-11T06:47:09;174.43;;;77.53;;
9186;SDS011;7273;48.902;9.410;2022-08-11T06:49:46;180.20;;;80.45;;
9186;SDS011;7273;48.902;9.410;2022-08-11T06:52:34;164.05;;;75.82;;
9186;SDS011;7273;48.902;9.410;2022-08-11T06:55:14;174.15;;;78.43;;
9186;SDS011;7273;48.902;9.410;2022-08-11T06:58:05;186.07;;;81.63;;
9186;SDS011;7273;48.902;9.410;2022-08-11T07:00:55;161.45;;;75.05;;
9186;SDS011;7273;48.902;9.410;2022-08-11T07:03:25;161.05;;;73.03;;
9186;SDS011;7273;48.902;9.410;2022-08-11T07:14:48;165.43;;;74.93;;
9186;SDS011;7273;48.902;9.410;2022-08-11T07:17:37;179.65;;;77.07;;
9186;SDS011;7273;48.902;9.410;2022-08-11T07:20:08;184.52;;;81.35;;
9186;SDS011;7273;48.902;9.410;2022-08-11T07:22:55;179.05;;;79.55;;
9186;SDS011;7273;48.902;9.410;2022-08-11T07:25:42;195.40;;;82.07;;
9186;SDS011;7273;48.902;9.410;2022-08-11T07:28:29;213.98;;;88.03;;
9186;SDS011;7273;48.902;9.410;2022-08-11T07:31:19;209.63;;;86.75;;
9186;SDS011;7273;48.902;9.410;2022-08-11T07:33:52;207.75;;;85.13;;
9186;SDS011;7273;48.902;9.410;2022-08-11T07:36:44;217.90;;;89.25;;
9186;SDS011;7273;48.902;9.410;2022-08-11T07:39:15;209.23;;;85.18;;
9186;SDS011;7273;48.902;9.410;2022-08-11T07:41:45;209.30;;;85.55;;
9186;SDS011;7273;48.902;9.410;2022-08-11T07:44:12;216.80;;;86.88;;
9186;SDS011;7273;48.902;9.410;2022-08-11T07:46:41;227.57;;;91.55;;
9186;SDS011;7273;48.902;9.410;2022-08-11T07:49:28;213.10;;;87.82;;
9186;SDS011;7273;48.902;9.410;2022-08-11T07:52:15;245.65;;;93.20;;
9186;SDS011;7273;48.902;9.410;2022-08-11T07:54:58;217.82;;;87.90;;
9186;SDS011;7273;48.902;9.410;2022-08-11T07:57:25;209.32;;;85.75;;
9186;SDS011;7273;48.902;9.410;2022-08-11T08:00:10;210.77;;;86.22;;
9186;SDS011;7273;48.902;9.410;2022-08-11T08:02:55;231.63;;;92.32;;
9186;SDS011;7273;48.902;9.410;2022-08-11T08:05:42;143.18;;;70.72;;
9186;SDS011;7273;48.902;9.410;2022-08-11T08:08:27;87.55;;;50.80;;
9186;SDS011;7273;48.902;9.410;2022-08-11T08:11:12;114.05;;;58.80;;
9186;SDS011;7273;48.902;9.410;2022-08-11T08:13:57;78.65;;;47.83;;
9186;SDS011;7273;48.902;9.410;2022-08-11T08:16:42;102.70;;;57.15;;
9186;SDS011;7273;48.902;9.410;2022-08-11T08:19:27;159.23;;;74.13;;
9186;SDS011;7273;48.902;9.410;2022-08-11T08:21:53;172.48;;;79.63;;
9186;SDS011;7273;48.902;9.410;2022-08-11T08:24:20;159.93;;;74.63;;
9186;SDS011;7273;48.902;9.410;2022-08-11T08:26:48;181.18;;;81.93;;
9186;SDS011;7273;48.902;9.410;2022-08-11T08:29:24;167.70;;;76.18;;
9186;SDS011;7273;48.902;9.410;2022-08-11T08:32:14;201.80;;;84.78;;
9186;SDS011;7273;48.902;9.410;2022-08-11T08:34:41;196.80;;;83.70;;
9186;SDS011;7273;48.902;9.410;2022-08-11T08:37:07;196.52;;;86.20;;
9186;SDS011;7273;48.902;9.410;2022-08-11T08:39:33;189.52;;;81.80;;
9186;SDS011;7273;48.902;9.410;2022-08-11T08:42:02;173.38;;;78.25;;
9186;SDS011;7273;48.902;9.410;2022-08-11T08:44:35;151.00;;;72.38;;
9186;SDS011;7273;48.902;9.410;2022-08-11T08:47:06;183.73;;;83.57;;
9186;SDS011;7273;48.902;9.410;2022-08-11T08:49:34;196.60;;;84.03;;
9186;SDS011;7273;48.902;9.410;2022-08-11T08:52:03;79.70;;;47.40;;
9186;SDS011;7273;48.902;9.410;2022-08-11T08:54:36;96.70;;;54.60;;
9186;SDS011;7273;48.902;9.410;2022-08-11T08:57:03;168.85;;;79.15;;
9186;SDS011;7273;48.902;9.410;2022-08-11T08:59:34;111.03;;;58.65;;
9186;SDS011;7273;48.902;9.410;2022-08-11T09:02:03;99.82;;;57.00;;
9186;SDS011;7273;48.902;9.410;2022-08-11T09:07:10;146.18;;;70.88;;
9186;SDS011;7273;48.902;9.410;2022-08-11T09:09:49;135.25;;;68.72;;
9186;SDS011;7273;48.902;9.410;2022-08-11T09:12:19;146.50;;;70.38;;
9186;SDS011;7273;48.902;9.410;2022-08-11T09:14:46;137.93;;;68.28;;
9186;SDS011;7273;48.902;9.410;2022-08-11T09:22:36;151.77;;;74.88;;
9186;SDS011;7273;48.902;9.410;2022-08-11T09:25:24;176.18;;;80.95;;
9186;SDS011;7273;48.902;9.410;2022-08-11T09:30:36;176.25;;;81.78;;
9186;SDS011;7273;48.902;9.410;2022-08-11T09:33:05;174.55;;;79.05;;
9186;SDS011;7273;48.902;9.410;2022-08-11T09:35:35;175.85;;;79.47;;
9186;SDS011;7273;48.902;9.410;2022-08-11T09:38:03;178.65;;;80.18;;
9186;SDS011;7273;48.902;9.410;2022-08-11T09:40:48;174.95;;;80.75;;
9186;SDS011;7273;48.902;9.410;2022-08-11T09:43:16;165.07;;;78.60;;
9186;SDS011;7273;48.902;9.410;2022-08-11T09:46:01;181.15;;;82.85;;
9186;SDS011;7273;48.902;9.410;2022-08-11T09:48:29;176.32;;;82.25;;
9186;SDS011;7273;48.902;9.410;2022-08-11T09:50:59;189.52;;;85.03;;
9186;SDS011;7273;48.902;9.410;2022-08-11T09:53:26;188.75;;;84.68;;
9186;SDS011;7273;48.902;9.410;2022-08-11T09:55:55;194.27;;;86.95;;
9186;SDS011;7273;48.902;9.410;2022-08-11T09:58:21;154.02;;;75.10;;
9186;SDS011;7273;48.902;9.410;2022-08-11T10:00:48;196.13;;;86.50;;
9186;SDS011;7273;48.902;9.410;2022-08-11T10:03:17;200.95;;;85.93;;
9186;SDS011;7273;48.902;9.410;2022-08-11T10:05:47;224.13;;;93.03;;
9186;SDS011;7273;48.902;9.410;2022-08-11T10:08:33;225.85;;;91.82;;
9186;SDS011;7273;48.902;9.410;2022-08-11T10:11:03;223.82;;;92.65;;
9186;SDS011;7273;48.902;9.410;2022-08-11T10:13:31;223.52;;;93.20;;
9186;SDS011;7273;48.902;9.410;2022-08-11T10:16:18;221.95;;;92.75;;
9186;SDS011;7273;48.902;9.410;2022-08-11T10:18:48;246.63;;;97.43;;
9186;SDS011;7273;48.902;9.410;2022-08-11T10:21:28;253.95;;;99.18;;
9186;SDS011;7273;48.902;9.410;2022-08-11T10:24:00;261.98;;;99.38;;
9186;SDS011;7273;48.902;9.410;2022-08-11T10:26:46;250.90;;;98.60;;
9186;SDS011;7273;48.902;9.410;2022-08-11T10:29:24;280.42;;;104.47;;
9186;SDS011;7273;48.902;9.410;2022-08-11T10:32:11;255.80;;;99.63;;
9186;SDS011;7273;48.902;9.410;2022-08-11T10:34:57;274.65;;;104.03;;
9186;SDS011;7273;48.902;9.410;2022-08-11T10:37:25;270.25;;;102.57;;
9186;SDS011;7273;48.902;9.410;2022-08-11T10:39:58;172.88;;;80.97;;
9186;SDS011;7273;48.902;9.410;2022-08-11T10:42:24;127.80;;;65.78;;
9186;SDS011;7273;48.902;9.410;2022-08-11T10:45:09;235.00;;;96.18;;
9186;SDS011;7273;48.902;9.410;2022-08-11T10:47:54;258.20;;;100.55;;
9186;SDS011;7273;48.902;9.410;2022-08-11T10:50:21;256.60;;;100.47;;
9186;SDS011;7273;48.902;9.410;2022-08-11T10:53:06;277.85;;;104.72;;
9186;SDS011;7273;48.902;9.410;2022-08-11T10:55:51;288.92;;;106.80;;
9186;SDS011;7273;48.902;9.410;2022-08-11T10:58:37;269.02;;;102.75;;
9186;SDS011;7273;48.902;9.410;2022-08-11T11:01:17;260.23;;;100.43;;
9186;SDS011;7273;48.902;9.410;2022-08-11T11:03:51;275.80;;;104.18;;
9186;SDS011;7273;48.902;9.410;2022-08-11T11:06:32;246.73;;;98.07;;
9186;SDS011;7273;48.902;9.410;2022-08-11T11:09:13;273.52;;;104.32;;
9186;SDS011;7273;48.902;9.410;2022-08-11T11:12:02;238.50;;;97.13;;
9186;SDS011;7273;48.902;9.410;2022-08-11T11:14:48;262.48;;;102.32;;
9186;SDS011;7273;48.902;9.410;2022-08-11T11:17:36;252.88;;;100.97;;
9186;SDS011;7273;48.902;9.410;2022-08-11T11:23:02;155.68;;;78.28;;
9186;SDS011;7273;48.902;9.410;2022-08-11T11:25:35;151.38;;;76.53;;
9186;SDS011;7273;48.902;9.410;2022-08-11T11:39:10;46.78;;;18.23;;
9186;SDS011;7273;48.902;9.410;2022-08-11T11:41:36;42.70;;;14.23;;
9186;SDS011;7273;48.902;9.410;2022-08-11T11:44:02;36.58;;;12.30;;
9186;SDS011;7273;48.902;9.410;2022-08-11T11:46:29;35.42;;;12.00;;
9186;SDS011;7273;48.902;9.410;2022-08-11T11:48:56;41.92;;;12.98;;
9186;SDS011;7273;48.902;9.410;2022-08-11T11:51:24;43.05;;;14.85;;
9186;SDS011;7273;48.902;9.410;2022-08-11T11:56:17;38.42;;;12.68;;
9186;SDS011;7273;48.902;9.410;2022-08-11T11:58:46;32.42;;;11.05;;
9186;SDS011;7273;48.902;9.410;2022-08-11T12:01:31;35.13;;;11.75;;
9186;SDS011;7273;48.902;9.410;2022-08-11T12:03:58;34.33;;;11.25;;
9186;SDS011;7273;48.902;9.410;2022-08-11T12:06:25;15.60;;;5.80;;
9186;SDS011;7273;48.902;9.410;2022-08-11T12:08:52;15.10;;;5.72;;
9186;SDS011;7273;48.902;9.410;2022-08-11T12:11:20;13.60;;;5.60;;
9186;SDS011;7273;48.902;9.410;2022-08-11T12:14:06;16.77;;;6.38;;
9186;SDS011;7273;48.902;9.410;2022-08-11T12:16:34;20.55;;;6.93;;
9186;SDS011;7273;48.902;9.410;2022-08-11T12:19:11;19.13;;;6.75;;
9186;SDS011;7273;48.902;9.410;2022-08-11T12:24:33;23.60;;;7.53;;
9186;SDS011;7273;48.902;9.410;2022-08-11T12:27:18;21.17;;;7.28;;
9186;SDS011;7273;48.902;9.410;2022-08-11T12:29:49;20.40;;;7.13;;
9186;SDS011;7273;48.902;9.410;2022-08-11T12:32:17;18.40;;;6.93;;
9186;SDS011;7273;48.902;9.410;2022-08-11T12:34:44;20.50;;;7.18;;
9186;SDS011;7273;48.902;9.410;2022-08-11T12:37:09;21.30;;;7.32;;
9186;SDS011;7273;48.902;9.410;2022-08-11T12:39:43;24.92;;;7.82;;
9186;SDS011;7273;48.902;9.410;2022-08-11T12:42:31;23.40;;;7.93;;
9186;SDS011;7273;48.902;9.410;2022-08-11T12:45:17;22.92;;;7.72;;
9186;SDS011;7273;48.902;9.410;2022-08-11T12:48:16;25.92;;;8.57;;
9186;SDS011;7273;48.902;9.410;2022-08-11T12:51:06;26.65;;;8.63;;
9186;SDS011;7273;48.902;9.410;2022-08-11T12:53:54;30.23;;;9.95;;
9186;SDS011;7273;48.902;9.410;2022-08-11T12:56:23;27.55;;;9.15;;
9186;SDS011;7273;48.902;9.410;2022-08-11T12:59:15;26.75;;;9.13;;
9186;SDS011;7273;48.902;9.410;2022-08-11T13:01:59;30.05;;;9.20;;
9186;SDS011;7273;48.902;9.410;2022-08-11T13:04:44;34.13;;;10.00;;
9186;SDS011;7273;48.902;9.410;2022-08-11T13:07:20;31.05;;;9.98;;
9186;SDS011;7273;48.902;9.410;2022-08-11T13:09:46;48.45;;;16.33;;
9186;SDS011;7273;48.902;9.410;2022-08-11T13:12:12;86.50;;;47.00;;
9186;SDS011;7273;48.902;9.410;2022-08-11T13:14:58;233.05;;;103.93;;
9186;SDS011;7273;48.902;9.410;2022-08-11T13:17:24;350.48;;;128.68;;
9186;SDS011;7273;48.902;9.410;2022-08-11T13:19:53;397.33;;;136.65;;
9186;SDS011;7273;48.902;9.410;2022-08-11T13:22:21;465.52;;;150.52;;
9186;SDS011;7273;48.902;9.410;2022-08-11T13:24:49;499.67;;;158.00;;
9186;SDS011;7273;48.902;9.410;2022-08-11T13:27:19;571.75;;;176.73;;
9186;SDS011;7273;48.902;9.410;2022-08-11T13:29:45;622.90;;;192.07;;
9186;SDS011;7273;48.902;9.410;2022-08-11T13:32:13;654.85;;;200.20;;
9186;SDS011;7273;48.902;9.410;2022-08-11T13:34:40;703.40;;;213.10;;
9186;SDS011;7273;48.902;9.410;2022-08-11T13:37:11;715.92;;;216.35;;
9186;SDS011;7273;48.902;9.410;2022-08-11T13:39:39;766.97;;;229.20;;
9186;SDS011;7273;48.902;9.410;2022-08-11T13:42:11;773.75;;;231.23;;
9186;SDS011;7273;48.902;9.410;2022-08-11T13:44:38;815.50;;;242.05;;
9186;SDS011;7273;48.902;9.410;2022-08-11T13:47:05;799.17;;;236.45;;
9186;SDS011;7273;48.902;9.410;2022-08-11T13:49:36;847.47;;;249.57;;
9186;SDS011;7273;48.902;9.410;2022-08-11T13:52:04;896.58;;;260.33;;
9186;SDS011;7273;48.902;9.410;2022-08-11T13:54:31;861.35;;;251.20;;
9186;SDS011;7273;48.902;9.410;2022-08-11T13:57:04;904.22;;;261.27;;
9186;SDS011;7273;48.902;9.410;2022-08-11T13:59:31;897.50;;;261.17;;
9186;SDS011;7273;48.902;9.410;2022-08-11T14:02:01;920.92;;;267.40;;
9186;SDS011;7273;48.902;9.410;2022-08-11T14:07:38;954.83;;;273.00;;
9186;SDS011;7273;48.902;9.410;2022-08-11T14:10:10;959.78;;;274.25;;
9186;SDS011;7273;48.902;9.410;2022-08-11T14:20:53;939.60;;;269.30;;
9186;SDS011;7273;48.902;9.410;2022-08-11T14:23:42;981.67;;;280.17;;
9186;SDS011;7273;48.902;9.410;2022-08-11T14:26:10;1012.85;;;287.85;;
9186;SDS011;7273;48.902;9.410;2022-08-11T14:29:04;1035.82;;;292.90;;
9186;SDS011;7273;48.902;9.410;2022-08-11T14:31:33;1058.00;;;298.67;;
9186;SDS011;7273;48.902;9.410;2022-08-11T14:34:03;1071.70;;;302.05;;
9186;SDS011;7273;48.902;9.410;2022-08-11T14:36:34;1115.57;;;313.45;;
9186;SDS011;7273;48.902;9.410;2022-08-11T14:39:03;1140.35;;;318.15;;
9186;SDS011;7273;48.902;9.410;2022-08-11T14:41:32;1182.25;;;327.92;;
9186;SDS011;7273;48.902;9.410;2022-08-11T14:44:16;1168.88;;;324.52;;
9186;SDS011;7273;48.902;9.410;2022-08-11T14:47:01;897.85;;;255.00;;
9186;SDS011;7273;48.902;9.410;2022-08-11T14:49:29;880.92;;;249.27;;
9186;SDS011;7273;48.902;9.410;2022-08-11T14:51:58;871.90;;;247.85;;
9186;SDS011;7273;48.902;9.410;2022-08-11T14:54:29;879.38;;;249.27;;
9186;SDS011;7273;48.902;9.410;2022-08-11T14:57:14;885.10;;;251.02;;
9186;SDS011;7273;48.902;9.410;2022-08-11T14:59:41;931.47;;;262.10;;
9186;SDS011;7273;48.902;9.410;2022-08-11T15:02:08;929.78;;;261.98;;
9186;SDS011;7273;48.902;9.410;2022-08-11T15:04:53;890.75;;;252.93;;
9186;SDS011;7273;48.902;9.410;2022-08-11T15:07:22;869.20;;;246.70;;
9186;SDS011;7273;48.902;9.410;2022-08-11T15:09:53;824.60;;;236.73;;
9186;SDS011;7273;48.902;9.410;2022-08-11T15:12:21;873.85;;;246.95;;
9186;SDS011;7273;48.902;9.410;2022-08-11T15:14:48;895.20;;;253.77;;
9186;SDS011;7273;48.902;9.410;2022-08-11T15:17:33;858.78;;;244.60;;
9186;SDS011;7273;48.902;9.410;2022-08-11T15:20:04;864.72;;;245.75;;
9186;SDS011;7273;48.902;9.410;2022-08-11T15:22:51;849.35;;;241.75;;
9186;SDS011;7273;48.902;9.410;2022-08-11T15:25:35;874.05;;;247.82;;
9186;SDS011;7273;48.902;9.410;2022-08-11T15:28:02;856.10;;;243.00;;
9186;SDS011;7273;48.902;9.410;2022-08-11T15:30:49;855.53;;;243.02;;
9186;SDS011;7273;48.902;9.410;2022-08-11T15:33:38;858.22;;;243.15;;
9186;SDS011;7273;48.902;9.410;2022-08-11T15:36:23;863.50;;;245.18;;
9186;SDS011;7273;48.902;9.410;2022-08-11T15:39:18;846.28;;;239.98;;
9186;SDS011;7273;48.902;9.410;2022-08-11T15:41:50;859.33;;;243.65;;
9186;SDS011;7273;48.902;9.410;2022-08-11T15:44:40;852.13;;;241.60;;
9186;SDS011;7273;48.902;9.410;2022-08-11T15:47:32;868.58;;;245.68;;
9186;SDS011;7273;48.902;9.410;2022-08-11T15:50:01;810.33;;;230.35;;
9186;SDS011;7273;48.902;9.410;2022-08-11T15:52:31;829.22;;;233.52;;
9186;SDS011;7273;48.902;9.410;2022-08-11T15:55:04;841.22;;;238.30;;
9186;SDS011;7273;48.902;9.410;2022-08-11T15:57:31;849.58;;;242.20;;
9186;SDS011;7273;48.902;9.410;2022-08-11T16:00:16;846.75;;;238.57;;
9186;SDS011;7273;48.902;9.410;2022-08-11T16:03:01;864.97;;;242.05;;
9186;SDS011;7273;48.902;9.410;2022-08-11T16:05:48;866.65;;;244.70;;
9186;SDS011;7273;48.902;9.410;2022-08-11T16:08:15;872.22;;;245.65;;
9186;SDS011;7273;48.902;9.410;2022-08-11T16:10:46;885.40;;;249.13;;
9186;SDS011;7273;48.902;9.410;2022-08-11T16:13:12;862.42;;;242.65;;
9186;SDS011;7273;48.902;9.410;2022-08-11T16:15:43;865.50;;;244.65;;
9186;SDS011;7273;48.902;9.410;2022-08-11T16:21:16;921.92;;;257.90;;
9186;SDS011;7273;48.902;9.410;2022-08-11T16:23:48;882.50;;;247.55;;
9186;SDS011;7273;48.902;9.410;2022-08-11T16:26:18;873.17;;;245.68;;
9186;SDS011;7273;48.902;9.410;2022-08-11T16:28:57;816.88;;;232.90;;
9186;SDS011;7273;48.902;9.410;2022-08-11T16:31:24;872.67;;;248.13;;
9186;SDS011;7273;48.902;9.410;2022-08-11T16:33:52;885.17;;;250.23;;
9186;SDS011;7273;48.902;9.410;2022-08-11T16:36:19;911.15;;;261.33;;
9186;SDS011;7273;48.902;9.410;2022-08-11T16:39:06;592.53;;;176.57;;
9186;SDS011;7273;48.902;9.410;2022-08-11T16:41:34;258.50;;;126.53;;
9186;SDS011;7273;48.902;9.410;2022-08-11T16:44:20;373.70;;;146.48;;
9186;SDS011;7273;48.902;9.410;2022-08-11T16:47:05;59.58;;;32.08;;
9186;SDS011;7273;48.902;9.410;2022-08-11T16:49:37;19.30;;;11.75;;
9186;SDS011;7273;48.902;9.410;2022-08-11T16:52:07;511.27;;;159.40;;
9186;SDS011;7273;48.902;9.410;2022-08-11T16:54:36;552.85;;;169.20;;
9186;SDS011;7273;48.902;9.410;2022-08-11T16:57:12;528.13;;;159.77;;
9186;SDS011;7273;48.902;9.410;2022-08-11T17:00:04;320.27;;;113.53;;
9186;SDS011;7273;48.902;9.410;2022-08-11T17:02:32;852.28;;;243.07;;
9186;SDS011;7273;48.902;9.410;2022-08-11T17:05:21;637.78;;;189.15;;
9186;SDS011;7273;48.902;9.410;2022-08-11T17:08:07;621.55;;;182.05;;
9186;SDS011;7273;48.902;9.410;2022-08-11T17:10:55;644.47;;;188.48;;
9186;SDS011;7273;48.902;9.410;2022-08-11T17:13:57;711.42;;;206.73;;
9186;SDS011;7273;48.902;9.410;2022-08-11T17:16:30;728.45;;;210.32;;
9186;SDS011;7273;48.902;9.410;2022-08-11T17:18:59;741.58;;;213.65;;
9186;SDS011;7273;48.902;9.410;2022-08-11T17:21:30;630.40;;;181.95;;
9186;SDS011;7273;48.902;9.410;2022-08-11T17:24:05;134.40;;;53.92;;
9186;SDS011;7273;48.902;9.410;2022-08-11T17:31:47;614.85;;;178.65;;
9186;SDS011;7273;48.902;9.410;2022-08-11T17:34:33;661.17;;;192.38;;
9186;SDS011;7273;48.902;9.410;2022-08-11T17:37:18;784.35;;;225.43;;
9186;SDS011;7273;48.902;9.410;2022-08-11T17:39:47;819.47;;;233.65;;
9186;SDS011;7273;48.902;9.410;2022-08-11T17:42:14;799.40;;;229.13;;
9186;SDS011;7273;48.902;9.410;2022-08-11T17:44:59;809.55;;;231.38;;
9186;SDS011;7273;48.902;9.410;2022-08-11T17:47:45;812.45;;;232.00;;
9186;SDS011;7273;48.902;9.410;2022-08-11T17:50:31;811.85;;;232.52;;
9186;SDS011;7273;48.902;9.410;2022-08-11T17:52:59;822.95;;;234.63;;
9186;SDS011;7273;48.902;9.410;2022-08-11T17:55:45;843.90;;;240.30;;
9186;SDS011;7273;48.902;9.410;2022-08-11T17:58:31;824.50;;;234.60;;
9186;SDS011;7273;48.902;9.410;2022-08-11T18:01:17;821.72;;;233.63;;
9186;SDS011;7273;48.902;9.410;2022-08-11T18:03:44;821.08;;;233.57;;
9186;SDS011;7273;48.902;9.410;2022-08-11T18:06:11;819.17;;;233.88;;
9186;SDS011;7273;48.902;9.410;2022-08-11T18:08:42;822.22;;;234.07;;
9186;SDS011;7273;48.902;9.410;2022-08-11T18:11:27;830.08;;;235.38;;
9186;SDS011;7273;48.902;9.410;2022-08-11T18:14:14;835.75;;;237.77;;
9186;SDS011;7273;48.902;9.410;2022-08-11T18:16:58;840.05;;;238.60;;
9186;SDS011;7273;48.902;9.410;2022-08-11T18:19:42;846.15;;;241.80;;
9186;SDS011;7273;48.902;9.410;2022-08-11T18:22:29;846.22;;;240.10;;
9186;SDS011;7273;48.902;9.410;2022-08-11T18:25:20;845.60;;;236.35;;
9186;SDS011;7273;48.902;9.410;2022-08-11T18:28:09;850.28;;;241.82;;
9186;SDS011;7273;48.902;9.410;2022-08-11T18:36:30;864.67;;;244.32;;
9186;SDS011;7273;48.902;9.410;2022-08-11T18:39:20;866.28;;;244.45;;
9186;SDS011;7273;48.902;9.410;2022-08-11T18:42:09;866.65;;;244.50;;
9186;SDS011;7273;48.902;9.410;2022-08-11T18:45:03;866.72;;;241.52;;
9186;SDS011;7273;48.902;9.410;2022-08-11T18:47:51;869.90;;;242.57;;
9186;SDS011;7273;48.902;9.410;2022-08-11T18:50:43;869.50;;;245.23;;
9186;SDS011;7273;48.902;9.410;2022-08-11T18:53:29;875.90;;;244.68;;
9186;SDS011;7273;48.902;9.410;2022-08-11T18:56:15;876.42;;;247.10;;
9186;SDS011;7273;48.902;9.410;2022-08-11T18:59:02;878.97;;;247.98;;
9186;SDS011;7273;48.902;9.410;2022-08-11T19:01:47;876.40;;;247.43;;
9186;SDS011;7273;48.902;9.410;2022-08-11T19:04:35;881.25;;;248.63;;
9186;SDS011;7273;48.902;9.410;2022-08-11T19:07:21;882.67;;;249.15;;
9186;SDS011;7273;48.902;9.410;2022-08-11T19:10:06;888.95;;;250.63;;
9186;SDS011;7273;48.902;9.410;2022-08-11T19:12:51;888.03;;;250.73;;
9186;SDS011;7273;48.902;9.410;2022-08-11T19:15:37;887.53;;;247.82;;
9186;SDS011;7273;48.902;9.410;2022-08-11T19:18:23;890.92;;;248.00;;
9186;SDS011;7273;48.902;9.410;2022-08-11T19:21:08;885.88;;;247.15;;
9186;SDS011;7273;48.902;9.410;2022-08-11T19:23:55;905.75;;;249.82;;
9186;SDS011;7273;48.902;9.410;2022-08-11T19:26:43;860.53;;;240.95;;
9186;SDS011;7273;48.902;9.410;2022-08-11T19:29:28;666.67;;;192.93;;
9186;SDS011;7273;48.902;9.410;2022-08-11T19:32:14;720.47;;;202.80;;
9186;SDS011;7273;48.902;9.410;2022-08-11T19:35:00;628.53;;;178.75;;
9186;SDS011;7273;48.902;9.410;2022-08-11T19:37:46;67.82;;;18.70;;
9186;SDS011;7273;48.902;9.410;2022-08-11T19:40:32;3.95;;;1.55;;